Alta, California
Current Conditions -  °F | °C
As of 10:52 PM on Saturday 22 Nov 2014 (Local Time) from KBLU Reporting Station
Clear Clear  
Wind Chill: 36°   Ceiling: Unl
Heat Index: 36°   Visibility: 10mi
Dew Point: 29°   Wind: 3mph
Humidity: 76%   Direction: 60°ENE
Pressure: 30.25"   Gusts: NA
Location:  39.21°N, 120.81°W
Report Text: KBLU 230652Z AUTO 06003KT 10SM CLR 02/M02 A3025 RMK AO2 SLP228 T00221017
Loading
Personal Weather Stations






























Interactive Weather Map New forecast layout! Learn more

10-Day Weather Forecast

Advertisements
Track Severe Weather on mobile